Portada
METAR-TAF:

METAR-TAF

Aeroports :

Kuantan, Malàisia

latitud: 03-37N, longitud: 103-13E, altitud: 18 m

Observació

L'informe es va fer fa 1 hora i 13 minuts, a les 16:00 UTC
Vent 2 kt amb direcció variable
Temperatura 26°C
Humitat 89%
Pressió 1011 hPa
Visibilitat: 2000 m
calitja

METAR: WMKD 211600Z VRB02KT 2000 HZ VV/// 26/24 Q1011 NOSIG

Hora: 01:13 (17:13 UTC)


TAF: manca

Observacions i pronòstics meteorològics de més de 4000 aeroports (METAR i TAF).

Les estacions disponibles són els punts grocs i vermells al mapa.

Posi el ratolí al punt desitjat per veure el nom de l'estació.

Feu clic per veure les observacions i els pronòstics meteorològics.

Per canviar el mapa: feu clic els botons verds amb una creu de color negre per apropar; al botó verd amb un guió per allunyar la imatge; o en les fletxes verdes per a mapes adjacents.


METAR-TAF: